Time,TemperatureF,DewpointF,PressureIn,WindDirection,WindDirectionDegrees,WindSpeedMPH,WindSpeedGustMPH,Humidity,HourlyPrecipIn,Conditions,Clouds,dailyrainin,SoftwareType,DateUTC
2013-03-27 00:07:00,42.9,41.0,29.99,NE,42,0.0,0.0,93,0.00,,,0.00,weatherlink.com 1.10,2013-03-27 07:07:00,
2013-03-27 00:22:00,42.7,41.0,29.99,NE,42,0.0,0.0,93,0.00,,,0.00,weatherlink.com 1.10,2013-03-27 07:22:00,
2013-03-27 00:37:00,42.4,41.0,29.99,NE,42,0.0,0.0,93,0.00,,,0.00,weatherlink.com 1.10,2013-03-27 07:37:00,
2013-03-27 00:52:00,42.6,41.0,29.99,NE,42,0.0,0.0,93,0.00,,,0.00,weatherlink.com 1.10,2013-03-27 07:52:00,
2013-03-27 01:07:00,42.4,41.0,29.98,NE,42,0.0,0.0,93,0.00,,,0.00,weatherlink.com 1.10,2013-03-27 08:07:00,
2013-03-27 01:22:00,42.1,40.0,29.98,NE,42,0.0,0.0,93,0.00,,,0.00,weatherlink.com 1.10,2013-03-27 08:22:00,
2013-03-27 01:37:00,42.0,40.0,29.98,NE,42,0.0,0.0,93,0.00,,,0.00,weatherlink.com 1.10,2013-03-27 08:37:00,
2013-03-27 01:52:00,41.9,40.0,29.98,NE,42,0.0,0.0,94,0.00,,,0.00,weatherlink.com 1.10,2013-03-27 08:52:00,
2013-03-27 02:07:00,41.7,40.0,29.98,NE,42,0.0,0.0,94,0.00,,,0.00,weatherlink.com 1.10,2013-03-27 09:07:00,
2013-03-27 02:22:00,42.0,40.0,29.98,NE,42,0.0,0.0,94,0.00,,,0.00,weatherlink.com 1.10,2013-03-27 09:22:00,
2013-03-27 02:37:00,42.5,41.0,29.98,NE,42,0.0,0.0,94,0.00,,,0.00,weatherlink.com 1.10,2013-03-27 09:37:00,
2013-03-27 02:52:00,42.4,41.0,29.97,NE,42,0.0,0.0,94,0.00,,,0.00,weatherlink.com 1.10,2013-03-27 09:52:00,
2013-03-27 03:07:00,42.4,41.0,29.96,NE,42,0.0,0.0,94,0.00,,,0.00,weatherlink.com 1.10,2013-03-27 10:07:00,
2013-03-27 03:22:00,42.3,41.0,29.97,NE,42,0.0,0.0,94,0.00,,,0.00,weatherlink.com 1.10,2013-03-27 10:22:00,
2013-03-27 03:37:00,43.1,42.0,29.96,WNW,285,0.0,3.0,95,0.00,,,0.00,weatherlink.com 1.10,2013-03-27 10:37:00,
2013-03-27 03:52:00,43.7,42.0,29.97,WNW,285,0.0,2.0,95,0.00,,,0.00,weatherlink.com 1.10,2013-03-27 10:52:00,
2013-03-27 04:07:00,44.3,43.0,29.97,WNW,285,0.0,1.0,95,0.00,,,0.00,weatherlink.com 1.10,2013-03-27 11:07:00,
2013-03-27 04:22:00,44.6,43.0,29.97,WNW,285,0.0,0.0,95,0.00,,,0.00,weatherlink.com 1.10,2013-03-27 11:22:00,
2013-03-27 04:37:00,44.7,43.0,29.96,WNW,285,0.0,0.0,95,0.00,,,0.00,weatherlink.com 1.10,2013-03-27 11:37:00,
2013-03-27 04:52:00,44.5,43.0,29.97,WNW,285,0.0,0.0,95,0.00,,,0.00,weatherlink.com 1.10,2013-03-27 11:52:00,
2013-03-27 05:07:00,44.2,43.0,29.97,WNW,285,0.0,2.0,95,0.00,,,0.00,weatherlink.com 1.10,2013-03-27 12:07:00,
2013-03-27 05:22:00,44.1,43.0,29.97,WNW,285,0.0,0.0,95,0.00,,,0.00,weatherlink.com 1.10,2013-03-27 12:22:00,
2013-03-27 05:37:00,44.2,43.0,29.97,WNW,285,0.0,1.0,95,0.00,,,0.00,weatherlink.com 1.10,2013-03-27 12:37:00,
2013-03-27 05:52:00,44.5,43.0,29.97,WNW,285,0.0,0.0,95,0.00,,,0.00,weatherlink.com 1.10,2013-03-27 12:52:00,
2013-03-27 06:07:00,44.8,44.0,29.97,WNW,285,0.0,0.0,95,0.00,,,0.00,weatherlink.com 1.10,2013-03-27 13:07:00,
2013-03-27 06:22:00,44.8,44.0,29.96,WNW,285,0.0,0.0,95,0.00,,,0.00,weatherlink.com 1.10,2013-03-27 13:22:00,
2013-03-27 06:37:00,44.7,43.0,29.96,WNW,285,0.0,0.0,95,0.00,,,0.00,weatherlink.com 1.10,2013-03-27 13:37:00,
2013-03-27 06:52:00,44.9,44.0,29.96,WNW,285,0.0,0.0,95,0.00,,,0.00,weatherlink.com 1.10,2013-03-27 13:52:00,
2013-03-27 07:07:00,45.0,44.0,29.97,WNW,285,0.0,0.0,95,0.00,,,0.00,weatherlink.com 1.10,2013-03-27 14:07:00,
2013-03-27 07:22:00,44.8,44.0,29.97,WNW,285,0.0,0.0,95,0.00,,,0.00,weatherlink.com 1.10,2013-03-27 14:22:00,
2013-03-27 07:37:00,44.9,44.0,29.98,WNW,285,0.0,0.0,95,0.00,,,0.00,weatherlink.com 1.10,2013-03-27 14:37:00,
2013-03-27 07:52:00,45.6,44.0,29.98,WNW,285,0.0,0.0,95,0.00,,,0.00,weatherlink.com 1.10,2013-03-27 14:52:00,
2013-03-27 08:08:00,46.2,45.0,29.98,WNW,285,0.0,0.0,95,0.00,,,0.00,weatherlink.com 1.10,2013-03-27 15:08:00,
2013-03-27 08:22:00,47.2,46.0,29.98,WNW,285,0.0,0.0,95,0.00,,,0.00,weatherlink.com 1.10,2013-03-27 15:22:00,
2013-03-27 08:37:00,48.1,47.0,29.98,WNW,285,0.0,0.0,95,0.00,,,0.00,weatherlink.com 1.10,2013-03-27 15:37:00,
2013-03-27 08:53:00,49.1,48.0,29.98,WNW,285,0.0,0.0,96,0.00,,,0.00,weatherlink.com 1.10,2013-03-27 15:53:00,
2013-03-27 09:08:00,49.5,48.0,29.99,NE,38,1.0,3.0,95,0.00,,,0.00,weatherlink.com 1.10,2013-03-27 16:08:00,
2013-03-27 09:38:00,50.6,49.0,30.00,NE,38,0.0,2.0,95,0.00,,,0.00,weatherlink.com 1.10,2013-03-27 16:38:00,
2013-03-27 09:53:00,51.6,50.0,29.99,NE,38,0.0,2.0,95,0.00,,,0.00,weatherlink.com 1.10,2013-03-27 16:53:00,
2013-03-27 10:10:00,53.1,52.0,29.99,ENE,74,1.0,3.0,94,0.00,,,0.00,weatherlink.com 1.10,2013-03-27 17:10:00,
2013-03-27 10:23:00,53.6,51.0,30.00,West,272,0.0,5.0,92,0.00,,,0.00,weatherlink.com 1.10,2013-03-27 17:23:00,
2013-03-27 10:38:00,54.6,52.0,30.00,NE,46,3.0,4.0,89,0.00,,,0.00,weatherlink.com 1.10,2013-03-27 17:38:00,
2013-03-27 10:53:00,56.2,51.0,30.00,ENE,76,0.0,4.0,83,0.00,,,0.00,weatherlink.com 1.10,2013-03-27 17:53:00,
2013-03-27 11:08:00,57.2,51.0,30.00,WSW,247,2.0,4.0,80,0.00,,,0.00,weatherlink.com 1.10,2013-03-27 18:08:00,
2013-03-27 11:23:00,56.5,50.0,30.00,NW,306,4.0,5.0,78,0.00,,,0.00,weatherlink.com 1.10,2013-03-27 18:23:00,
2013-03-27 11:38:00,56.3,50.0,30.00,NW,314,0.0,4.0,80,0.00,,,0.00,weatherlink.com 1.10,2013-03-27 18:38:00,
2013-03-27 11:53:00,56.4,50.0,30.00,NW,317,0.0,5.0,79,0.00,,,0.00,weatherlink.com 1.10,2013-03-27 18:53:00,
2013-03-27 12:08:00,56.7,51.0,30.00,ENE,61,1.0,4.0,81,0.00,,,0.00,weatherlink.com 1.10,2013-03-27 19:08:00,
2013-03-27 12:23:00,58.0,50.0,30.00,WNW,286,1.0,5.0,76,0.00,,,0.00,weatherlink.com 1.10,2013-03-27 19:23:00,
2013-03-27 12:38:00,56.6,50.0,30.00,ENE,70,0.0,5.0,79,0.00,,,0.00,weatherlink.com 1.10,2013-03-27 19:38:00,
2013-03-27 12:53:00,56.7,50.0,30.00,ENE,76,1.0,4.0,78,0.00,,,0.00,weatherlink.com 1.10,2013-03-27 19:53:00,
2013-03-27 13:08:00,56.4,50.0,30.00,ENE,59,0.0,3.0,80,0.00,,,0.00,weatherlink.com 1.10,2013-03-27 20:08:00,
2013-03-27 13:23:00,55.9,51.0,30.01,NNE,21,0.0,4.0,82,0.00,,,0.00,weatherlink.com 1.10,2013-03-27 20:23:00,
2013-03-27 13:38:00,55.2,51.0,30.01,SSW,197,0.0,2.0,84,0.00,,,0.00,weatherlink.com 1.10,2013-03-27 20:38:00,
2013-03-27 13:53:00,55.0,51.0,30.01,NNW,329,0.0,3.0,86,0.00,,,0.00,weatherlink.com 1.10,2013-03-27 20:53:00,
2013-03-27 14:08:00,54.4,51.0,30.01,NNW,345,0.0,3.0,87,0.00,,,0.00,weatherlink.com 1.10,2013-03-27 21:08:00,
2013-03-27 14:23:00,53.8,51.0,30.01,NE,42,0.0,2.0,89,0.00,,,0.00,weatherlink.com 1.10,2013-03-27 21:23:00,
2013-03-27 14:38:00,53.8,51.0,30.00,NE,38,0.0,1.0,89,0.00,,,0.00,weatherlink.com 1.10,2013-03-27 21:38:00,
2013-03-27 14:53:00,53.4,51.0,30.00,NNW,338,0.0,3.0,90,0.00,,,0.00,weatherlink.com 1.10,2013-03-27 21:53:00,
2013-03-27 15:08:00,53.5,51.0,30.00,NNW,338,0.0,2.0,90,0.00,,,0.00,weatherlink.com 1.10,2013-03-27 22:08:00,
2013-03-27 15:23:00,53.8,51.0,30.00,NNW,338,0.0,1.0,91,0.00,,,0.00,weatherlink.com 1.10,2013-03-27 22:23:00,
2013-03-27 15:38:00,54.4,51.0,30.00,NNW,340,0.0,1.0,89,0.00,,,0.00,weatherlink.com 1.10,2013-03-27 22:38:00,
2013-03-27 15:53:00,55.6,52.0,30.00,NE,50,3.0,3.0,86,0.00,,,0.00,weatherlink.com 1.10,2013-03-27 22:53:00,
2013-03-27 16:08:00,55.7,51.0,30.00,NE,36,2.0,4.0,83,0.00,,,0.00,weatherlink.com 1.10,2013-03-27 23:08:00,
2013-03-27 16:23:00,55.4,50.0,30.00,NW,309,0.0,4.0,82,0.00,,,0.00,weatherlink.com 1.10,2013-03-27 23:23:00,
2013-03-27 16:38:00,55.4,50.0,29.99,WNW,290,0.0,5.0,82,0.00,,,0.00,weatherlink.com 1.10,2013-03-27 23:38:00,
2013-03-27 16:53:00,55.3,50.0,29.99,ENE,66,0.0,2.0,82,0.00,,,0.00,weatherlink.com 1.10,2013-03-27 23:53:00,
2013-03-27 17:08:00,54.9,50.0,30.00,NE,53,1.0,5.0,82,0.00,,,0.00,weatherlink.com 1.10,2013-03-28 00:08:00,
2013-03-27 17:23:00,54.6,50.0,30.00,ENE,78,0.0,1.0,84,0.00,,,0.00,weatherlink.com 1.10,2013-03-28 00:23:00,
2013-03-27 17:38:00,54.4,50.0,30.00,NE,55,2.0,3.0,84,0.00,,,0.00,weatherlink.com 1.10,2013-03-28 00:38:00,
2013-03-27 17:53:00,53.9,49.0,30.00,NNW,327,0.0,3.0,84,0.00,,,0.00,weatherlink.com 1.10,2013-03-28 00:53:00,
2013-03-27 18:08:00,53.5,50.0,30.00,NNE,24,0.0,4.0,86,0.00,,,0.00,weatherlink.com 1.10,2013-03-28 01:08:00,
2013-03-27 18:23:00,52.8,49.0,30.00,NE,50,0.0,3.0,87,0.00,,,0.00,weatherlink.com 1.10,2013-03-28 01:23:00,
2013-03-27 18:38:00,52.3,49.0,30.00,North,355,0.0,2.0,88,0.00,,,0.00,weatherlink.com 1.10,2013-03-28 01:38:00,
2013-03-27 18:53:00,52.0,49.0,30.00,NNE,30,0.0,2.0,89,0.00,,,0.00,weatherlink.com 1.10,2013-03-28 01:53:00,
2013-03-27 19:08:00,51.8,49.0,30.00,NNE,33,0.0,2.0,89,0.00,,,0.00,weatherlink.com 1.10,2013-03-28 02:08:00,
2013-03-27 19:23:00,51.7,49.0,30.00,NE,45,0.0,1.0,89,0.00,,,0.00,weatherlink.com 1.10,2013-03-28 02:23:00,
2013-03-27 19:38:00,51.5,48.0,30.00,NE,45,0.0,0.0,89,0.00,,,0.00,weatherlink.com 1.10,2013-03-28 02:38:00,
2013-03-27 19:53:00,51.3,48.0,30.00,NE,45,0.0,1.0,89,0.00,,,0.00,weatherlink.com 1.10,2013-03-28 02:53:00,
2013-03-27 20:08:00,51.1,48.0,30.01,NE,45,0.0,0.0,90,0.00,,,0.00,weatherlink.com 1.10,2013-03-28 03:08:00,
2013-03-27 20:23:00,50.9,48.0,30.01,NE,45,0.0,0.0,90,0.00,,,0.00,weatherlink.com 1.10,2013-03-28 03:23:00,
2013-03-27 20:38:00,50.7,48.0,30.01,NE,45,0.0,1.0,90,0.00,,,0.00,weatherlink.com 1.10,2013-03-28 03:38:00,
2013-03-27 20:53:00,50.4,48.0,30.02,NE,45,0.0,2.0,90,0.00,,,0.00,weatherlink.com 1.10,2013-03-28 03:53:00,
2013-03-27 21:08:00,50.2,48.0,30.02,NE,45,0.0,1.0,91,0.00,,,0.00,weatherlink.com 1.10,2013-03-28 04:08:00,
2013-03-27 21:23:00,50.1,48.0,30.02,NE,45,0.0,1.0,91,0.00,,,0.00,weatherlink.com 1.10,2013-03-28 04:23:00,
2013-03-27 21:38:00,50.0,49.0,30.02,NE,49,0.0,2.0,95,0.00,,,0.00,weatherlink.com 1.10,2013-03-28 04:38:00,
2013-03-27 21:53:00,49.9,48.0,30.03,NE,49,0.0,1.0,92,0.00,,,0.00,weatherlink.com 1.10,2013-03-28 04:53:00,
2013-03-27 22:09:00,49.4,47.0,30.03,NE,49,0.0,1.0,92,0.00,,,0.00,weatherlink.com 1.10,2013-03-28 05:09:00,
2013-03-27 22:24:00,48.7,47.0,30.03,NE,49,0.0,2.0,92,0.00,,,0.00,weatherlink.com 1.10,2013-03-28 05:24:00,
2013-03-27 22:39:00,47.7,46.0,30.03,NE,49,0.0,0.0,92,0.00,,,0.00,weatherlink.com 1.10,2013-03-28 05:39:00,
2013-03-27 22:54:00,47.1,45.0,30.04,NE,49,0.0,0.0,92,0.00,,,0.00,weatherlink.com 1.10,2013-03-28 05:54:00,
2013-03-27 23:09:00,46.7,45.0,30.04,NE,49,0.0,0.0,93,0.00,,,0.00,weatherlink.com 1.10,2013-03-28 06:09:00,
2013-03-27 23:24:00,45.9,44.0,30.03,NE,49,0.0,0.0,93,0.00,,,0.00,weatherlink.com 1.10,2013-03-28 06:24:00,
2013-03-27 23:39:00,45.1,43.0,30.03,NE,49,0.0,0.0,93,0.00,,,0.00,weatherlink.com 1.10,2013-03-28 06:39:00,
2013-03-27 23:54:00,44.4,43.0,30.04,NE,49,0.0,0.0,93,0.00,,,0.00,weatherlink.com 1.10,2013-03-28 06:54:00,